sensor_id;sensor_type;location;lat;lon;timestamp;temperature;humidity
78184;DHT22;67442;44.570;18.610;2024-02-21T00:00:58;7.00;99.90
78184;DHT22;67442;44.570;18.610;2024-02-21T00:03:29;7.00;99.90
78184;DHT22;67442;44.570;18.610;2024-02-21T00:05:57;7.00;99.90
78184;DHT22;67442;44.570;18.610;2024-02-21T00:08:25;7.00;99.90
78184;DHT22;67442;44.570;18.610;2024-02-21T00:10:56;6.70;99.90
78184;DHT22;67442;44.570;18.610;2024-02-21T00:13:27;6.60;99.90
78184;DHT22;67442;44.570;18.610;2024-02-21T00:15:54;6.40;99.90
78184;DHT22;67442;44.570;18.610;2024-02-21T00:18:21;6.30;99.90
78184;DHT22;67442;44.570;18.610;2024-02-21T00:20:49;6.20;99.90
78184;DHT22;67442;44.570;18.610;2024-02-21T00:23:16;6.40;99.90
78184;DHT22;67442;44.570;18.610;2024-02-21T00:25:43;6.70;99.90
78184;DHT22;67442;44.570;18.610;2024-02-21T00:28:11;6.90;99.90
78184;DHT22;67442;44.570;18.610;2024-02-21T00:30:39;7.10;99.90
78184;DHT22;67442;44.570;18.610;2024-02-21T00:33:07;6.70;99.90
78184;DHT22;67442;44.570;18.610;2024-02-21T00:35:35;6.40;99.90
78184;DHT22;67442;44.570;18.610;2024-02-21T00:38:02;6.30;99.90
78184;DHT22;67442;44.570;18.610;2024-02-21T00:40:30;6.30;99.90
78184;DHT22;67442;44.570;18.610;2024-02-21T00:43:01;6.50;99.90
78184;DHT22;67442;44.570;18.610;2024-02-21T00:45:29;6.50;99.90
78184;DHT22;67442;44.570;18.610;2024-02-21T00:47:57;6.80;99.90
78184;DHT22;67442;44.570;18.610;2024-02-21T00:50:24;6.80;99.90
78184;DHT22;67442;44.570;18.610;2024-02-21T00:52:55;6.80;99.90
78184;DHT22;67442;44.570;18.610;2024-02-21T00:55:22;6.70;99.90
78184;DHT22;67442;44.570;18.610;2024-02-21T00:57:49;6.60;99.90
78184;DHT22;67442;44.570;18.610;2024-02-21T01:00:21;6.40;99.90
78184;DHT22;67442;44.570;18.610;2024-02-21T01:02:48;6.20;99.90
78184;DHT22;67442;44.570;18.610;2024-02-21T01:05:18;6.40;99.90
78184;DHT22;67442;44.570;18.610;2024-02-21T01:07:46;6.60;99.90
78184;DHT22;67442;44.570;18.610;2024-02-21T01:10:14;6.60;99.90
78184;DHT22;67442;44.570;18.610;2024-02-21T01:12:41;6.50;99.90
78184;DHT22;67442;44.570;18.610;2024-02-21T01:15:09;6.50;99.90
78184;DHT22;67442;44.570;18.610;2024-02-21T01:17:41;6.70;99.90
78184;DHT22;67442;44.570;18.610;2024-02-21T01:20:12;6.60;99.90
78184;DHT22;67442;44.570;18.610;2024-02-21T01:22:40;6.40;99.90
78184;DHT22;67442;44.570;18.610;2024-02-21T01:25:11;6.50;99.90
78184;DHT22;67442;44.570;18.610;2024-02-21T01:27:39;6.90;99.90
78184;DHT22;67442;44.570;18.610;2024-02-21T01:30:07;7.00;99.90
78184;DHT22;67442;44.570;18.610;2024-02-21T01:32:37;6.90;99.90
78184;DHT22;67442;44.570;18.610;2024-02-21T01:35:06;6.90;99.90
78184;DHT22;67442;44.570;18.610;2024-02-21T01:37:34;6.70;99.90
78184;DHT22;67442;44.570;18.610;2024-02-21T01:40:07;6.50;99.90
78184;DHT22;67442;44.570;18.610;2024-02-21T01:42:40;6.40;99.90
78184;DHT22;67442;44.570;18.610;2024-02-21T01:45:09;6.40;99.90
78184;DHT22;67442;44.570;18.610;2024-02-21T01:47:37;6.40;99.90
78184;DHT22;67442;44.570;18.610;2024-02-21T01:50:06;6.40;99.90
78184;DHT22;67442;44.570;18.610;2024-02-21T01:52:34;6.40;99.90
78184;DHT22;67442;44.570;18.610;2024-02-21T01:55:02;6.40;99.90
78184;DHT22;67442;44.570;18.610;2024-02-21T01:57:30;6.40;99.90
78184;DHT22;67442;44.570;18.610;2024-02-21T02:00:02;6.40;99.90
78184;DHT22;67442;44.570;18.610;2024-02-21T02:02:30;6.40;99.90
78184;DHT22;67442;44.570;18.610;2024-02-21T02:05:02;6.30;99.90
78184;DHT22;67442;44.570;18.610;2024-02-21T02:07:30;6.50;99.90
78184;DHT22;67442;44.570;18.610;2024-02-21T02:10:01;6.50;99.90
78184;DHT22;67442;44.570;18.610;2024-02-21T02:12:28;6.70;99.90
78184;DHT22;67442;44.570;18.610;2024-02-21T02:15:02;7.00;99.90
78184;DHT22;67442;44.570;18.610;2024-02-21T02:17:33;7.00;99.90
78184;DHT22;67442;44.570;18.610;2024-02-21T02:20:05;6.70;99.90
78184;DHT22;67442;44.570;18.610;2024-02-21T02:22:37;6.50;99.90
78184;DHT22;67442;44.570;18.610;2024-02-21T02:25:09;6.50;99.90
78184;DHT22;67442;44.570;18.610;2024-02-21T02:27:43;6.70;99.90
78184;DHT22;67442;44.570;18.610;2024-02-21T02:30:12;6.80;99.90
78184;DHT22;67442;44.570;18.610;2024-02-21T02:32:43;6.80;99.90
78184;DHT22;67442;44.570;18.610;2024-02-21T02:35:10;6.60;99.90
78184;DHT22;67442;44.570;18.610;2024-02-21T02:37:37;6.40;99.90
78184;DHT22;67442;44.570;18.610;2024-02-21T02:40:09;6.20;99.90
78184;DHT22;67442;44.570;18.610;2024-02-21T02:42:39;6.20;99.90
78184;DHT22;67442;44.570;18.610;2024-02-21T02:45:10;6.20;99.90
78184;DHT22;67442;44.570;18.610;2024-02-21T02:47:39;6.10;99.90
78184;DHT22;67442;44.570;18.610;2024-02-21T02:50:08;6.00;99.90
78184;DHT22;67442;44.570;18.610;2024-02-21T02:52:36;6.10;99.90
78184;DHT22;67442;44.570;18.610;2024-02-21T02:55:08;6.10;99.90
78184;DHT22;67442;44.570;18.610;2024-02-21T02:57:39;6.50;99.90
78184;DHT22;67442;44.570;18.610;2024-02-21T03:00:08;6.80;99.90
78184;DHT22;67442;44.570;18.610;2024-02-21T03:02:37;7.00;99.90
78184;DHT22;67442;44.570;18.610;2024-02-21T03:05:19;7.00;99.90
78184;DHT22;67442;44.570;18.610;2024-02-21T03:07:50;6.70;99.90
78184;DHT22;67442;44.570;18.610;2024-02-21T03:10:21;6.60;99.90
78184;DHT22;67442;44.570;18.610;2024-02-21T03:12:48;6.40;99.90
78184;DHT22;67442;44.570;18.610;2024-02-21T03:15:17;6.40;99.90
78184;DHT22;67442;44.570;18.610;2024-02-21T03:17:45;6.40;99.90
78184;DHT22;67442;44.570;18.610;2024-02-21T03:20:12;6.40;99.90
78184;DHT22;67442;44.570;18.610;2024-02-21T03:22:43;6.20;99.90
78184;DHT22;67442;44.570;18.610;2024-02-21T03:25:10;6.00;99.90
78184;DHT22;67442;44.570;18.610;2024-02-21T03:27:43;6.00;99.90
78184;DHT22;67442;44.570;18.610;2024-02-21T03:30:11;5.90;99.90
78184;DHT22;67442;44.570;18.610;2024-02-21T03:32:39;5.90;99.90
78184;DHT22;67442;44.570;18.610;2024-02-21T03:35:08;6.00;99.90
78184;DHT22;67442;44.570;18.610;2024-02-21T03:37:39;6.00;99.90
78184;DHT22;67442;44.570;18.610;2024-02-21T03:40:09;6.10;99.90
78184;DHT22;67442;44.570;18.610;2024-02-21T03:42:38;6.40;99.90
78184;DHT22;67442;44.570;18.610;2024-02-21T03:45:06;6.40;99.90
78184;DHT22;67442;44.570;18.610;2024-02-21T03:47:35;6.40;99.90
78184;DHT22;67442;44.570;18.610;2024-02-21T03:50:02;6.20;99.90
78184;DHT22;67442;44.570;18.610;2024-02-21T03:52:31;6.00;99.90
78184;DHT22;67442;44.570;18.610;2024-02-21T03:54:58;6.10;99.90
78184;DHT22;67442;44.570;18.610;2024-02-21T03:57:29;6.10;99.90
78184;DHT22;67442;44.570;18.610;2024-02-21T03:59:56;6.00;99.90
78184;DHT22;67442;44.570;18.610;2024-02-21T04:02:24;6.10;99.90
78184;DHT22;67442;44.570;18.610;2024-02-21T04:04:52;6.00;99.90
78184;DHT22;67442;44.570;18.610;2024-02-21T04:07:19;5.80;99.90
78184;DHT22;67442;44.570;18.610;2024-02-21T04:09:51;5.80;99.90
78184;DHT22;67442;44.570;18.610;2024-02-21T04:12:23;5.80;99.90
78184;DHT22;67442;44.570;18.610;2024-02-21T04:14:50;5.90;99.90
78184;DHT22;67442;44.570;18.610;2024-02-21T04:17:18;6.00;99.90
78184;DHT22;67442;44.570;18.610;2024-02-21T04:19:45;5.90;99.90
78184;DHT22;67442;44.570;18.610;2024-02-21T04:22:17;6.00;99.90
78184;DHT22;67442;44.570;18.610;2024-02-21T04:24:48;6.00;99.90
78184;DHT22;67442;44.570;18.610;2024-02-21T04:27:16;5.80;99.90
78184;DHT22;67442;44.570;18.610;2024-02-21T04:29:43;5.90;99.90
78184;DHT22;67442;44.570;18.610;2024-02-21T04:32:11;5.70;99.90
78184;DHT22;67442;44.570;18.610;2024-02-21T04:34:38;5.60;99.90
78184;DHT22;67442;44.570;18.610;2024-02-21T04:37:09;5.60;99.90
78184;DHT22;67442;44.570;18.610;2024-02-21T04:39:40;5.50;99.90
78184;DHT22;67442;44.570;18.610;2024-02-21T04:42:08;5.40;99.90
78184;DHT22;67442;44.570;18.610;2024-02-21T04:44:36;5.50;99.90
78184;DHT22;67442;44.570;18.610;2024-02-21T04:47:04;5.60;99.90
78184;DHT22;67442;44.570;18.610;2024-02-21T04:49:32;5.90;99.90
78184;DHT22;67442;44.570;18.610;2024-02-21T04:52:03;6.10;99.90
78184;DHT22;67442;44.570;18.610;2024-02-21T04:54:32;6.00;99.90
78184;DHT22;67442;44.570;18.610;2024-02-21T04:57:06;6.00;99.90
78184;DHT22;67442;44.570;18.610;2024-02-21T04:59:34;5.80;99.90
78184;DHT22;67442;44.570;18.610;2024-02-21T05:02:02;5.70;99.90
78184;DHT22;67442;44.570;18.610;2024-02-21T05:04:29;5.70;99.90
78184;DHT22;67442;44.570;18.610;2024-02-21T05:07:00;5.60;99.90
78184;DHT22;67442;44.570;18.610;2024-02-21T05:09:32;5.70;99.90
78184;DHT22;67442;44.570;18.610;2024-02-21T05:12:04;5.70;99.90
78184;DHT22;67442;44.570;18.610;2024-02-21T05:14:32;5.80;99.90
78184;DHT22;67442;44.570;18.610;2024-02-21T05:17:04;5.70;99.90
78184;DHT22;67442;44.570;18.610;2024-02-21T05:19:35;5.70;99.90
78184;DHT22;67442;44.570;18.610;2024-02-21T05:22:03;5.80;99.90
78184;DHT22;67442;44.570;18.610;2024-02-21T05:24:31;6.00;99.90
78184;DHT22;67442;44.570;18.610;2024-02-21T05:26:59;6.00;99.90
78184;DHT22;67442;44.570;18.610;2024-02-21T05:29:26;5.90;99.90
78184;DHT22;67442;44.570;18.610;2024-02-21T05:31:57;5.90;99.90
78184;DHT22;67442;44.570;18.610;2024-02-21T05:34:25;5.80;99.90
78184;DHT22;67442;44.570;18.610;2024-02-21T05:36:56;5.60;99.90
78184;DHT22;67442;44.570;18.610;2024-02-21T05:39:24;5.50;99.90
78184;DHT22;67442;44.570;18.610;2024-02-21T05:41:55;5.70;99.90
78184;DHT22;67442;44.570;18.610;2024-02-21T05:44:26;5.90;99.90
78184;DHT22;67442;44.570;18.610;2024-02-21T05:46:54;6.00;99.90
78184;DHT22;67442;44.570;18.610;2024-02-21T05:49:25;5.80;99.90
78184;DHT22;67442;44.570;18.610;2024-02-21T05:51:56;5.60;99.90
78184;DHT22;67442;44.570;18.610;2024-02-21T05:54:24;5.50;99.90
78184;DHT22;67442;44.570;18.610;2024-02-21T05:56:55;5.50;99.90
78184;DHT22;67442;44.570;18.610;2024-02-21T05:59:26;5.60;99.90
78184;DHT22;67442;44.570;18.610;2024-02-21T06:01:59;6.00;99.90
78184;DHT22;67442;44.570;18.610;2024-02-21T06:04:32;6.10;99.90
78184;DHT22;67442;44.570;18.610;2024-02-21T06:07:03;6.40;99.90
78184;DHT22;67442;44.570;18.610;2024-02-21T06:09:35;6.30;99.90
78184;DHT22;67442;44.570;18.610;2024-02-21T06:12:03;6.10;99.90
78184;DHT22;67442;44.570;18.610;2024-02-21T06:14:30;6.10;99.90
78184;DHT22;67442;44.570;18.610;2024-02-21T06:17:01;5.90;99.90
78184;DHT22;67442;44.570;18.610;2024-02-21T06:19:29;5.90;99.90
78184;DHT22;67442;44.570;18.610;2024-02-21T06:21:57;5.70;99.90
78184;DHT22;67442;44.570;18.610;2024-02-21T06:24:24;5.70;99.90
78184;DHT22;67442;44.570;18.610;2024-02-21T06:26:51;5.70;99.90
78184;DHT22;67442;44.570;18.610;2024-02-21T06:29:22;5.60;99.90
78184;DHT22;67442;44.570;18.610;2024-02-21T06:31:53;5.60;99.90
78184;DHT22;67442;44.570;18.610;2024-02-21T06:34:20;5.50;99.90
78184;DHT22;67442;44.570;18.610;2024-02-21T06:36:48;5.80;99.90
78184;DHT22;67442;44.570;18.610;2024-02-21T06:39:20;6.20;99.90
78184;DHT22;67442;44.570;18.610;2024-02-21T06:41:49;6.50;99.90
78184;DHT22;67442;44.570;18.610;2024-02-21T06:44:21;6.60;99.90
78184;DHT22;67442;44.570;18.610;2024-02-21T06:46:49;6.60;99.90
78184;DHT22;67442;44.570;18.610;2024-02-21T06:49:16;6.40;99.90
78184;DHT22;67442;44.570;18.610;2024-02-21T06:51:44;6.50;99.90
78184;DHT22;67442;44.570;18.610;2024-02-21T06:54:15;6.70;99.90
78184;DHT22;67442;44.570;18.610;2024-02-21T06:56:43;6.80;99.90
78184;DHT22;67442;44.570;18.610;2024-02-21T06:59:14;7.00;99.90
78184;DHT22;67442;44.570;18.610;2024-02-21T07:01:53;6.80;99.90
78184;DHT22;67442;44.570;18.610;2024-02-21T07:04:20;7.00;99.90
78184;DHT22;67442;44.570;18.610;2024-02-21T07:06:48;7.00;99.90
78184;DHT22;67442;44.570;18.610;2024-02-21T07:09:16;6.60;99.90
78184;DHT22;67442;44.570;18.610;2024-02-21T07:11:43;6.40;99.90
78184;DHT22;67442;44.570;18.610;2024-02-21T07:14:15;6.30;99.90
78184;DHT22;67442;44.570;18.610;2024-02-21T07:16:42;6.40;99.90
78184;DHT22;67442;44.570;18.610;2024-02-21T07:19:14;6.50;99.90
78184;DHT22;67442;44.570;18.610;2024-02-21T07:21:40;6.50;99.90
78184;DHT22;67442;44.570;18.610;2024-02-21T07:24:10;6.50;99.90
78184;DHT22;67442;44.570;18.610;2024-02-21T07:26:42;6.80;99.90
78184;DHT22;67442;44.570;18.610;2024-02-21T07:29:13;7.30;99.90
78184;DHT22;67442;44.570;18.610;2024-02-21T07:31:41;7.50;99.90
78184;DHT22;67442;44.570;18.610;2024-02-21T07:34:09;7.70;99.90
78184;DHT22;67442;44.570;18.610;2024-02-21T07:36:40;7.50;99.90
78184;DHT22;67442;44.570;18.610;2024-02-21T07:39:12;7.40;99.90
78184;DHT22;67442;44.570;18.610;2024-02-21T07:41:40;7.30;99.90
78184;DHT22;67442;44.570;18.610;2024-02-21T07:44:09;7.30;99.90
78184;DHT22;67442;44.570;18.610;2024-02-21T07:46:37;7.40;99.90
78184;DHT22;67442;44.570;18.610;2024-02-21T07:49:04;7.60;99.90
78184;DHT22;67442;44.570;18.610;2024-02-21T07:51:32;7.90;99.90
78184;DHT22;67442;44.570;18.610;2024-02-21T07:54:00;8.10;99.90
78184;DHT22;67442;44.570;18.610;2024-02-21T07:56:31;8.20;99.90
78184;DHT22;67442;44.570;18.610;2024-02-21T07:58:59;8.20;99.90
78184;DHT22;67442;44.570;18.610;2024-02-21T08:01:27;8.20;99.90
78184;DHT22;67442;44.570;18.610;2024-02-21T08:03:54;8.10;99.90
78184;DHT22;67442;44.570;18.610;2024-02-21T08:06:22;8.10;99.90
78184;DHT22;67442;44.570;18.610;2024-02-21T08:08:50;8.10;99.90
78184;DHT22;67442;44.570;18.610;2024-02-21T08:11:19;8.10;99.90
78184;DHT22;67442;44.570;18.610;2024-02-21T08:13:47;8.40;99.90
78184;DHT22;67442;44.570;18.610;2024-02-21T08:16:14;8.90;99.90
78184;DHT22;67442;44.570;18.610;2024-02-21T08:18:45;9.30;99.90
78184;DHT22;67442;44.570;18.610;2024-02-21T08:21:13;9.60;99.90
78184;DHT22;67442;44.570;18.610;2024-02-21T08:23:41;9.60;99.90
78184;DHT22;67442;44.570;18.610;2024-02-21T08:26:09;9.80;99.90
78184;DHT22;67442;44.570;18.610;2024-02-21T08:28:36;10.10;99.90
78184;DHT22;67442;44.570;18.610;2024-02-21T08:31:04;10.40;99.90
78184;DHT22;67442;44.570;18.610;2024-02-21T08:33:32;10.60;99.90
78184;DHT22;67442;44.570;18.610;2024-02-21T08:36:04;10.80;99.90
78184;DHT22;67442;44.570;18.610;2024-02-21T08:38:32;11.10;99.90
78184;DHT22;67442;44.570;18.610;2024-02-21T08:41:05;11.30;99.90
78184;DHT22;67442;44.570;18.610;2024-02-21T08:43:33;11.10;99.90
78184;DHT22;67442;44.570;18.610;2024-02-21T08:46:05;11.20;99.90
78184;DHT22;67442;44.570;18.610;2024-02-21T08:48:32;11.40;99.90
78184;DHT22;67442;44.570;18.610;2024-02-21T08:51:00;11.40;99.90
78184;DHT22;67442;44.570;18.610;2024-02-21T08:53:31;11.50;99.90
78184;DHT22;67442;44.570;18.610;2024-02-21T08:55:58;11.50;99.90
78184;DHT22;67442;44.570;18.610;2024-02-21T08:58:29;11.80;99.90
78184;DHT22;67442;44.570;18.610;2024-02-21T09:00:57;11.80;99.90
78184;DHT22;67442;44.570;18.610;2024-02-21T09:03:25;11.60;99.90
78184;DHT22;67442;44.570;18.610;2024-02-21T09:05:52;11.70;99.90
78184;DHT22;67442;44.570;18.610;2024-02-21T09:08:20;11.70;99.90
78184;DHT22;67442;44.570;18.610;2024-02-21T09:10:48;11.80;99.90
78184;DHT22;67442;44.570;18.610;2024-02-21T09:13:15;11.80;99.90
78184;DHT22;67442;44.570;18.610;2024-02-21T09:15:47;11.40;99.90
78184;DHT22;67442;44.570;18.610;2024-02-21T09:18:15;11.40;99.90
78184;DHT22;67442;44.570;18.610;2024-02-21T09:20:46;11.30;99.90
78184;DHT22;67442;44.570;18.610;2024-02-21T09:23:14;11.20;99.90
78184;DHT22;67442;44.570;18.610;2024-02-21T09:25:42;11.30;99.90
78184;DHT22;67442;44.570;18.610;2024-02-21T09:28:14;11.50;99.90
78184;DHT22;67442;44.570;18.610;2024-02-21T09:30:48;11.80;99.90
78184;DHT22;67442;44.570;18.610;2024-02-21T09:33:19;12.00;98.70
78184;DHT22;67442;44.570;18.610;2024-02-21T09:35:46;11.90;99.90
78184;DHT22;67442;44.570;18.610;2024-02-21T09:38:15;12.20;99.90
78184;DHT22;67442;44.570;18.610;2024-02-21T09:40:42;12.40;99.30
78184;DHT22;67442;44.570;18.610;2024-02-21T09:43:17;12.60;98.60
78184;DHT22;67442;44.570;18.610;2024-02-21T09:45:51;12.50;98.30
78184;DHT22;67442;44.570;18.610;2024-02-21T09:48:33;12.50;99.90
78184;DHT22;67442;44.570;18.610;2024-02-21T09:51:11;12.60;98.20
78184;DHT22;67442;44.570;18.610;2024-02-21T09:53:38;12.60;96.90
78184;DHT22;67442;44.570;18.610;2024-02-21T09:56:08;12.50;98.90
78184;DHT22;67442;44.570;18.610;2024-02-21T09:58:36;12.40;98.10
78184;DHT22;67442;44.570;18.610;2024-02-21T10:01:06;12.50;98.50
78184;DHT22;67442;44.570;18.610;2024-02-21T10:03:35;12.90;97.60
78184;DHT22;67442;44.570;18.610;2024-02-21T10:06:07;13.10;98.70
78184;DHT22;67442;44.570;18.610;2024-02-21T10:08:35;13.50;97.50
78184;DHT22;67442;44.570;18.610;2024-02-21T10:11:02;13.30;99.90
78184;DHT22;67442;44.570;18.610;2024-02-21T10:13:30;13.50;99.90
78184;DHT22;67442;44.570;18.610;2024-02-21T10:16:03;13.60;98.90
78184;DHT22;67442;44.570;18.610;2024-02-21T10:18:30;13.80;98.20
78184;DHT22;67442;44.570;18.610;2024-02-21T10:21:03;13.60;97.30
78184;DHT22;67442;44.570;18.610;2024-02-21T10:26:10;13.70;99.70
78184;DHT22;67442;44.570;18.610;2024-02-21T10:28:37;13.70;98.50
78184;DHT22;67442;44.570;18.610;2024-02-21T10:31:11;13.70;94.80
78184;DHT22;67442;44.570;18.610;2024-02-21T10:33:38;13.60;97.20
78184;DHT22;67442;44.570;18.610;2024-02-21T10:36:10;13.40;97.70
78184;DHT22;67442;44.570;18.610;2024-02-21T10:38:37;13.00;98.50
78184;DHT22;67442;44.570;18.610;2024-02-21T10:41:06;13.40;96.90
78184;DHT22;67442;44.570;18.610;2024-02-21T10:43:38;13.40;97.00
78184;DHT22;67442;44.570;18.610;2024-02-21T10:46:09;13.30;97.00
78184;DHT22;67442;44.570;18.610;2024-02-21T10:48:44;13.60;97.60
78184;DHT22;67442;44.570;18.610;2024-02-21T10:51:19;13.70;96.70
78184;DHT22;67442;44.570;18.610;2024-02-21T10:54:13;13.80;97.10
78184;DHT22;67442;44.570;18.610;2024-02-21T10:56:48;13.60;96.30
78184;DHT22;67442;44.570;18.610;2024-02-21T10:59:17;13.50;97.20
78184;DHT22;67442;44.570;18.610;2024-02-21T11:01:48;13.50;95.50
78184;DHT22;67442;44.570;18.610;2024-02-21T11:04:21;13.70;99.90
78184;DHT22;67442;44.570;18.610;2024-02-21T11:06:49;13.90;97.10
78184;DHT22;67442;44.570;18.610;2024-02-21T11:09:17;14.20;96.30
78184;DHT22;67442;44.570;18.610;2024-02-21T11:11:45;14.40;94.80
78184;DHT22;67442;44.570;18.610;2024-02-21T11:14:20;14.50;92.20
78184;DHT22;67442;44.570;18.610;2024-02-21T11:16:48;14.60;94.30
78184;DHT22;67442;44.570;18.610;2024-02-21T11:19:23;15.00;90.80
78184;DHT22;67442;44.570;18.610;2024-02-21T11:21:50;15.20;92.30
78184;DHT22;67442;44.570;18.610;2024-02-21T11:24:33;15.30;90.10
78184;DHT22;67442;44.570;18.610;2024-02-21T11:27:14;15.40;86.40
78184;DHT22;67442;44.570;18.610;2024-02-21T11:29:48;15.50;86.60
78184;DHT22;67442;44.570;18.610;2024-02-21T11:32:19;15.20;84.90
78184;DHT22;67442;44.570;18.610;2024-02-21T11:35:00;15.30;86.50
78184;DHT22;67442;44.570;18.610;2024-02-21T11:37:32;14.90;80.80
78184;DHT22;67442;44.570;18.610;2024-02-21T11:40:06;14.70;81.20
78184;DHT22;67442;44.570;18.610;2024-02-21T11:42:36;14.30;84.40
78184;DHT22;67442;44.570;18.610;2024-02-21T11:45:04;14.40;87.00
78184;DHT22;67442;44.570;18.610;2024-02-21T11:47:30;14.40;81.60
78184;DHT22;67442;44.570;18.610;2024-02-21T11:49:57;14.10;82.90
78184;DHT22;67442;44.570;18.610;2024-02-21T11:52:25;14.20;82.80
78184;DHT22;67442;44.570;18.610;2024-02-21T11:54:52;13.70;86.10
78184;DHT22;67442;44.570;18.610;2024-02-21T11:57:21;13.70;88.20
78184;DHT22;67442;44.570;18.610;2024-02-21T11:59:48;14.00;84.30
78184;DHT22;67442;44.570;18.610;2024-02-21T12:02:17;13.70;85.90
78184;DHT22;67442;44.570;18.610;2024-02-21T12:04:44;13.60;87.50
78184;DHT22;67442;44.570;18.610;2024-02-21T12:07:12;13.50;87.30
78184;DHT22;67442;44.570;18.610;2024-02-21T12:09:44;13.30;86.00
78184;DHT22;67442;44.570;18.610;2024-02-21T12:12:12;13.40;85.30
78184;DHT22;67442;44.570;18.610;2024-02-21T12:14:40;13.30;85.20
78184;DHT22;67442;44.570;18.610;2024-02-21T12:17:13;12.90;89.50
78184;DHT22;67442;44.570;18.610;2024-02-21T12:19:44;13.00;88.30
78184;DHT22;67442;44.570;18.610;2024-02-21T12:22:21;13.30;84.70
78184;DHT22;67442;44.570;18.610;2024-02-21T12:24:48;13.30;82.70
78184;DHT22;67442;44.570;18.610;2024-02-21T12:27:20;13.40;85.20
78184;DHT22;67442;44.570;18.610;2024-02-21T12:29:48;13.30;85.20
78184;DHT22;67442;44.570;18.610;2024-02-21T12:32:16;13.40;86.80
78184;DHT22;67442;44.570;18.610;2024-02-21T12:34:48;13.30;86.40
78184;DHT22;67442;44.570;18.610;2024-02-21T12:37:15;13.40;85.90
78184;DHT22;67442;44.570;18.610;2024-02-21T12:39:43;13.40;85.60
78184;DHT22;67442;44.570;18.610;2024-02-21T12:42:14;13.00;85.60
78184;DHT22;67442;44.570;18.610;2024-02-21T12:44:41;12.90;85.80
78184;DHT22;67442;44.570;18.610;2024-02-21T12:47:09;12.90;86.30
78184;DHT22;67442;44.570;18.610;2024-02-21T12:49:37;13.00;86.30
78184;DHT22;67442;44.570;18.610;2024-02-21T12:52:08;13.00;86.10
78184;DHT22;67442;44.570;18.610;2024-02-21T12:54:36;12.80;89.30
78184;DHT22;67442;44.570;18.610;2024-02-21T12:57:03;13.00;83.90
78184;DHT22;67442;44.570;18.610;2024-02-21T12:59:31;13.20;82.20
78184;DHT22;67442;44.570;18.610;2024-02-21T13:01:59;12.90;86.20
78184;DHT22;67442;44.570;18.610;2024-02-21T13:04:30;12.80;88.00
78184;DHT22;67442;44.570;18.610;2024-02-21T13:06:58;12.90;88.70
78184;DHT22;67442;44.570;18.610;2024-02-21T13:09:30;12.80;88.50
78184;DHT22;67442;44.570;18.610;2024-02-21T13:12:01;13.20;89.20
78184;DHT22;67442;44.570;18.610;2024-02-21T13:14:29;13.50;81.50
78184;DHT22;67442;44.570;18.610;2024-02-21T13:16:57;13.70;81.00
78184;DHT22;67442;44.570;18.610;2024-02-21T13:19:24;13.30;84.60
78184;DHT22;67442;44.570;18.610;2024-02-21T13:21:52;13.30;85.20
78184;DHT22;67442;44.570;18.610;2024-02-21T13:24:20;13.40;83.50
78184;DHT22;67442;44.570;18.610;2024-02-21T13:26:47;13.60;82.30
78184;DHT22;67442;44.570;18.610;2024-02-21T13:29:15;13.50;83.40
78184;DHT22;67442;44.570;18.610;2024-02-21T13:31:44;13.00;86.10
78184;DHT22;67442;44.570;18.610;2024-02-21T13:34:12;13.00;85.20
78184;DHT22;67442;44.570;18.610;2024-02-21T13:36:39;13.00;81.40
78184;DHT22;67442;44.570;18.610;2024-02-21T13:39:07;12.90;84.90
78184;DHT22;67442;44.570;18.610;2024-02-21T13:41:34;13.00;82.80
78184;DHT22;67442;44.570;18.610;2024-02-21T13:44:02;12.80;83.90
78184;DHT22;67442;44.570;18.610;2024-02-21T13:46:30;12.90;82.60
78184;DHT22;67442;44.570;18.610;2024-02-21T13:49:04;13.00;83.40
78184;DHT22;67442;44.570;18.610;2024-02-21T13:51:35;13.10;86.20
78184;DHT22;67442;44.570;18.610;2024-02-21T13:54:04;13.20;86.20
78184;DHT22;67442;44.570;18.610;2024-02-21T13:56:35;13.20;86.20
78184;DHT22;67442;44.570;18.610;2024-02-21T13:59:07;13.10;83.80
78184;DHT22;67442;44.570;18.610;2024-02-21T14:01:37;13.20;82.50
78184;DHT22;67442;44.570;18.610;2024-02-21T14:04:05;13.20;83.40
78184;DHT22;67442;44.570;18.610;2024-02-21T14:06:36;12.70;87.90
78184;DHT22;67442;44.570;18.610;2024-02-21T14:09:09;12.70;87.20
78184;DHT22;67442;44.570;18.610;2024-02-21T14:11:40;12.90;84.00
78184;DHT22;67442;44.570;18.610;2024-02-21T14:14:08;12.70;85.10
78184;DHT22;67442;44.570;18.610;2024-02-21T14:16:36;12.60;86.60
78184;DHT22;67442;44.570;18.610;2024-02-21T14:19:06;12.70;83.60
78184;DHT22;67442;44.570;18.610;2024-02-21T14:21:35;12.80;82.00
78184;DHT22;67442;44.570;18.610;2024-02-21T14:24:05;12.70;82.80
78184;DHT22;67442;44.570;18.610;2024-02-21T14:26:35;12.90;81.90
78184;DHT22;67442;44.570;18.610;2024-02-21T14:29:07;12.90;80.40
78184;DHT22;67442;44.570;18.610;2024-02-21T14:31:34;13.20;80.40
78184;DHT22;67442;44.570;18.610;2024-02-21T14:34:02;13.40;78.90
78184;DHT22;67442;44.570;18.610;2024-02-21T14:36:33;13.40;81.30
78184;DHT22;67442;44.570;18.610;2024-02-21T14:39:01;13.30;78.60
78184;DHT22;67442;44.570;18.610;2024-02-21T14:41:30;13.50;78.70
78184;DHT22;67442;44.570;18.610;2024-02-21T14:44:00;13.30;76.90
78184;DHT22;67442;44.570;18.610;2024-02-21T14:46:29;13.30;76.50
78184;DHT22;67442;44.570;18.610;2024-02-21T14:48:57;13.50;72.80
78184;DHT22;67442;44.570;18.610;2024-02-21T14:51:25;13.50;71.70
78184;DHT22;67442;44.570;18.610;2024-02-21T14:53:56;13.20;73.80
78184;DHT22;67442;44.570;18.610;2024-02-21T14:56:27;12.90;74.80
78184;DHT22;67442;44.570;18.610;2024-02-21T14:58:55;12.90;74.60
78184;DHT22;67442;44.570;18.610;2024-02-21T15:01:23;12.60;74.90
78184;DHT22;67442;44.570;18.610;2024-02-21T15:03:50;12.40;73.00
78184;DHT22;67442;44.570;18.610;2024-02-21T15:06:18;12.30;75.20
78184;DHT22;67442;44.570;18.610;2024-02-21T15:08:49;12.00;75.80
78184;DHT22;67442;44.570;18.610;2024-02-21T15:11:18;11.90;84.80
78184;DHT22;67442;44.570;18.610;2024-02-21T15:13:46;11.70;89.00
78184;DHT22;67442;44.570;18.610;2024-02-21T15:16:14;11.40;90.60
78184;DHT22;67442;44.570;18.610;2024-02-21T15:18:43;11.30;94.00
78184;DHT22;67442;44.570;18.610;2024-02-21T15:21:10;11.20;94.20
78184;DHT22;67442;44.570;18.610;2024-02-21T15:23:40;11.10;94.90
78184;DHT22;67442;44.570;18.610;2024-02-21T15:26:08;10.80;95.50
78184;DHT22;67442;44.570;18.610;2024-02-21T15:28:35;10.90;96.50
78184;DHT22;67442;44.570;18.610;2024-02-21T15:31:03;10.80;96.40
78184;DHT22;67442;44.570;18.610;2024-02-21T15:33:30;10.80;98.50
78184;DHT22;67442;44.570;18.610;2024-02-21T15:35:58;10.70;99.80
78184;DHT22;67442;44.570;18.610;2024-02-21T15:38:26;10.90;99.90
78184;DHT22;67442;44.570;18.610;2024-02-21T15:53:13;9.70;94.90